Terminal Aerodrome Forecast
Issued by NWS Sterling, VA

Current Version | Previous Version | Text Only | Print | Product List | Glossary On
Versions: 1 2 3 4 5 6 7 8 9 10 11 12 13 14 15 16 17 18 19 20 21 22 23 24
000
FTUS41 KLWX 222300 RRA
TAFIAD
TAF
KIAD 222342Z 2300/2406 19007KT P6SM SCT250
     FM231400 VRB03KT P6SM SCT250
     FM231800 16008KT P6SM BKN250
     FM240000 14006KT 6SM -RA OVC025
     FM240300 13009KT 3SM RA OVC008=

USA.gov is the U.S. government's official web portal to all federal, state and local government web resources and services.